createdAt,value
2023-03-10T19:18:09.142Z,967.20
2023-03-10T19:18:42.135Z,967.40
2023-03-10T19:19:42.091Z,967.46
2023-03-10T19:20:42.089Z,967.55
2023-03-10T19:21:42.041Z,967.64
2023-03-10T19:22:42.104Z,967.91
2023-03-10T19:23:42.066Z,967.76
2023-03-10T19:24:42.035Z,967.84
2023-03-10T19:25:42.023Z,967.96
2023-03-10T19:26:42.020Z,967.97
2023-03-10T19:27:42.035Z,968.10
2023-03-10T19:28:42.008Z,968.12
2023-03-10T19:29:43.157Z,968.28
2023-03-10T19:30:43.167Z,968.32
2023-03-10T19:31:43.229Z,968.44
2023-03-10T19:32:43.140Z,968.65
2023-03-10T19:33:43.150Z,968.62
2023-03-10T19:34:43.129Z,968.61
2023-03-10T19:35:43.124Z,968.51
2023-03-10T19:36:43.099Z,968.72
2023-03-10T19:37:43.059Z,968.78
2023-03-10T19:38:43.109Z,968.80
2023-03-10T19:39:43.116Z,968.86
2023-03-10T19:40:43.050Z,968.97
2023-03-10T19:41:43.069Z,969.00
2023-03-10T19:42:43.879Z,969.07
2023-03-10T19:43:43.046Z,969.15
2023-03-10T19:44:43.051Z,969.29
2023-03-10T19:45:43.033Z,969.19
2023-03-10T19:46:43.187Z,969.33
2023-03-10T19:47:43.019Z,969.31
2023-03-10T19:48:43.013Z,969.42
2023-03-10T19:49:42.995Z,969.45
2023-03-10T19:50:42.985Z,969.57
2023-03-10T19:51:42.975Z,969.37
2023-03-10T19:52:42.996Z,969.50
2023-03-10T19:53:43.000Z,969.55
2023-03-10T19:54:42.963Z,969.53
2023-03-10T19:55:42.937Z,969.68
2023-03-10T19:56:42.936Z,969.64
2023-03-10T19:57:43.000Z,969.71
2023-03-10T19:58:42.938Z,969.79
2023-03-10T19:59:42.929Z,969.97
2023-03-10T20:00:42.953Z,970.04
2023-03-10T20:01:42.919Z,970.10
2023-03-10T20:02:42.929Z,970.05
2023-03-10T20:03:42.954Z,970.06
2023-03-10T20:04:42.869Z,970.16
2023-03-10T20:05:42.885Z,970.26
2023-03-10T20:06:46.555Z,970.29
2023-03-10T20:07:42.893Z,970.44
2023-03-10T20:08:43.858Z,970.49
2023-03-10T20:09:42.872Z,970.56
2023-03-10T20:10:42.845Z,970.76
2023-03-10T20:11:42.855Z,970.75
2023-03-10T20:12:42.845Z,970.81
2023-03-10T20:13:42.831Z,970.79
2023-03-10T20:14:42.832Z,970.84
2023-03-10T20:15:42.806Z,970.94
2023-03-10T20:16:42.827Z,971.11
2023-03-10T20:17:42.782Z,971.15
2023-03-10T20:18:42.812Z,971.08
2023-03-10T20:19:42.815Z,971.11
2023-03-10T20:20:42.765Z,971.17
2023-03-10T20:21:43.779Z,971.30
2023-03-10T20:22:42.809Z,971.30
2023-03-10T20:23:42.759Z,971.39
2023-03-10T20:24:44.558Z,971.58
2023-03-10T20:25:42.736Z,971.58
2023-03-10T20:26:42.762Z,971.37
2023-03-10T20:27:42.736Z,971.58
2023-03-10T20:28:42.740Z,971.70
2023-03-10T20:29:42.722Z,971.98
2023-03-10T20:30:42.728Z,972.06
2023-03-10T20:31:42.734Z,972.17
2023-03-10T20:32:42.730Z,972.06
2023-03-10T20:33:42.682Z,972.00
2023-03-10T20:34:42.715Z,972.22
2023-03-10T20:35:42.739Z,972.40
2023-03-10T20:36:42.672Z,972.12
2023-03-10T20:37:42.703Z,972.11
2023-03-10T20:38:42.653Z,972.31
2023-03-10T20:39:42.700Z,972.30
2023-03-10T20:40:42.640Z,972.38
2023-03-10T20:41:44.887Z,972.54
2023-03-10T20:42:43.662Z,972.56
2023-03-10T20:43:42.660Z,972.83
2023-03-10T20:44:42.638Z,972.67
2023-03-10T20:45:42.712Z,972.75
2023-03-10T20:46:42.617Z,972.73
2023-03-10T20:47:42.618Z,972.77
2023-03-10T20:48:42.573Z,972.81
2023-03-10T20:49:42.615Z,973.03
2023-03-10T20:50:42.576Z,972.72
2023-03-10T20:51:42.584Z,972.92
2023-03-10T20:52:42.567Z,972.91
2023-03-10T20:53:42.576Z,973.01
2023-03-10T20:54:42.573Z,973.11
2023-03-10T20:55:42.541Z,973.20
2023-03-10T20:56:42.539Z,973.26
2023-03-10T20:57:42.514Z,973.23
2023-03-10T20:58:42.577Z,973.35
2023-03-10T20:59:42.538Z,973.40
2023-03-10T21:00:42.513Z,973.33
2023-03-10T21:01:42.687Z,973.40
2023-03-10T21:02:42.492Z,973.41
2023-03-10T21:03:42.481Z,973.54
2023-03-10T21:04:42.526Z,973.62
2023-03-10T21:05:42.483Z,973.73
2023-03-10T21:06:42.481Z,973.61
2023-03-10T21:07:42.470Z,973.74
2023-03-10T21:08:42.471Z,973.80
2023-03-10T21:09:42.708Z,973.67
2023-03-10T21:10:42.433Z,973.65
2023-03-10T21:11:42.444Z,973.86
2023-03-10T21:12:42.425Z,973.79
2023-03-10T21:13:42.416Z,973.97
2023-03-10T21:14:42.440Z,973.86
2023-03-10T21:15:42.461Z,974.04
2023-03-10T21:16:42.435Z,973.95
2023-03-10T21:17:42.395Z,974.09
2023-03-10T21:18:42.432Z,974.16
2023-03-10T21:19:42.393Z,974.13
2023-03-10T21:20:42.362Z,974.23
2023-03-10T21:21:42.401Z,974.22
2023-03-10T21:22:42.362Z,974.31
2023-03-10T21:23:42.356Z,974.25
2023-03-10T21:24:42.353Z,974.28
2023-03-10T21:25:42.358Z,974.39
2023-03-10T21:26:42.382Z,974.28
2023-03-10T21:27:42.302Z,974.27
2023-03-10T21:28:42.341Z,974.41
2023-03-10T21:29:42.317Z,974.47
2023-03-10T21:30:42.368Z,974.36
2023-03-10T21:31:42.308Z,974.35
2023-03-10T21:32:42.308Z,974.40
2023-03-10T21:33:42.292Z,974.60
2023-03-10T21:34:42.310Z,974.54
2023-03-10T21:35:42.288Z,974.56
2023-03-10T21:36:42.289Z,974.61
2023-03-10T21:37:42.419Z,974.62
2023-03-10T21:38:43.273Z,974.63
2023-03-10T21:39:42.300Z,974.66
2023-03-10T21:40:42.247Z,974.66
2023-03-10T21:41:42.224Z,974.68
2023-03-10T21:42:42.245Z,974.75
2023-03-10T21:43:42.234Z,974.78
2023-03-10T21:44:42.240Z,974.74
2023-03-10T21:45:42.223Z,974.72
2023-03-10T21:46:43.201Z,974.85
2023-03-10T21:47:42.226Z,974.92
2023-03-10T21:48:42.174Z,974.89
2023-03-10T21:49:42.219Z,974.88
2023-03-10T21:50:42.182Z,974.98
2023-03-10T21:51:42.169Z,975.05
2023-03-10T21:52:42.203Z,975.03
2023-03-10T21:53:42.137Z,975.09
2023-03-10T21:54:42.197Z,975.00
2023-03-10T21:55:42.145Z,975.05
2023-03-10T21:56:42.153Z,975.14
2023-03-10T21:57:42.157Z,975.12
2023-03-10T21:58:42.148Z,975.17
2023-03-10T21:59:42.467Z,975.21
2023-03-10T22:00:42.119Z,975.26
2023-03-10T22:01:42.126Z,975.32
2023-03-10T22:02:42.100Z,975.37
2023-03-10T22:03:42.080Z,975.47
2023-03-10T22:04:43.136Z,975.44
2023-03-10T22:05:42.131Z,975.53
2023-03-10T22:06:42.110Z,975.63
2023-03-10T22:07:42.083Z,975.58
2023-03-10T22:08:42.089Z,975.67
2023-03-10T22:09:42.072Z,975.66
2023-03-10T22:10:42.056Z,975.61
2023-03-10T22:11:42.027Z,975.74
2023-03-10T22:12:42.012Z,975.75
2023-03-10T22:13:42.043Z,975.65
2023-03-10T22:14:42.034Z,975.70
2023-03-10T22:15:42.052Z,975.72
2023-03-10T22:16:41.981Z,975.76
2023-03-10T22:17:43.040Z,975.90
2023-03-10T22:18:42.005Z,975.84
2023-03-10T22:19:42.007Z,975.86
2023-03-10T22:20:41.970Z,975.90
2023-03-10T22:21:41.957Z,975.94
2023-03-10T22:22:42.006Z,975.98
2023-03-10T22:23:41.955Z,976.10
2023-03-10T22:24:41.977Z,976.01
2023-03-10T22:25:41.956Z,976.05
2023-03-10T22:26:41.930Z,976.11
2023-03-10T22:27:41.911Z,976.16
2023-03-10T22:28:41.893Z,976.11
2023-03-10T22:29:41.968Z,976.26
2023-03-10T22:30:41.888Z,976.27
2023-03-10T22:31:41.909Z,976.34
2023-03-10T22:32:41.949Z,976.34
2023-03-10T22:33:41.897Z,976.35
2023-03-10T22:34:41.871Z,976.44
2023-03-10T22:35:41.899Z,976.47
2023-03-10T22:36:41.855Z,976.54
2023-03-10T22:37:41.835Z,976.58
2023-03-10T22:38:41.838Z,976.61
2023-03-10T22:39:41.846Z,976.59
2023-03-10T22:40:41.805Z,976.69
2023-03-10T22:41:41.830Z,976.73
2023-03-10T22:42:41.850Z,976.70
2023-03-10T22:43:42.415Z,976.67
2023-03-10T22:44:41.849Z,976.76
2023-03-10T22:45:41.833Z,976.82
2023-03-10T22:46:41.811Z,976.84
2023-03-10T22:47:41.755Z,977.05
2023-03-10T22:48:41.775Z,976.86
2023-03-10T22:49:41.835Z,976.97
2023-03-10T22:50:41.781Z,976.96
2023-03-10T22:51:41.761Z,977.03
2023-03-10T22:52:41.769Z,977.04
2023-03-10T22:53:41.725Z,977.13
2023-03-10T22:54:41.747Z,977.03
2023-03-10T22:55:41.738Z,977.25
2023-03-10T22:56:41.711Z,977.18
2023-03-10T22:57:41.720Z,977.28
2023-03-10T22:58:41.725Z,977.21
2023-03-10T22:59:41.715Z,977.29
2023-03-10T23:00:41.721Z,977.34
2023-03-10T23:01:41.708Z,977.35
2023-03-10T23:02:41.707Z,977.40
2023-03-10T23:03:41.668Z,977.44
2023-03-10T23:04:41.683Z,977.43
2023-03-10T23:05:41.685Z,977.48
2023-03-10T23:06:41.702Z,977.52
2023-03-10T23:07:41.661Z,977.55
2023-03-10T23:08:41.651Z,977.53
2023-03-10T23:09:41.644Z,977.56
2023-03-10T23:10:41.636Z,977.60
2023-03-10T23:11:41.639Z,977.57
2023-03-10T23:12:41.646Z,977.70
2023-03-10T23:13:42.596Z,977.73
2023-03-10T23:14:41.632Z,977.84
2023-03-10T23:15:41.617Z,977.77
2023-03-10T23:16:41.657Z,977.76
2023-03-10T23:17:42.417Z,977.86
2023-03-10T23:18:41.600Z,977.82
2023-03-10T23:19:42.601Z,977.83
2023-03-10T23:20:41.574Z,977.87
2023-03-10T23:21:41.562Z,978.04
2023-03-10T23:22:41.547Z,977.90
2023-03-10T23:23:41.579Z,977.86
2023-03-10T23:24:41.558Z,977.96
2023-03-10T23:25:41.532Z,977.98
2023-03-10T23:26:41.510Z,978.11
2023-03-10T23:27:41.632Z,978.01
2023-03-10T23:28:41.517Z,978.06
2023-03-10T23:29:41.502Z,978.16
2023-03-10T23:30:41.512Z,978.18
2023-03-10T23:31:41.535Z,978.20
2023-03-10T23:32:41.532Z,978.21
2023-03-10T23:33:41.472Z,978.26
2023-03-10T23:34:41.494Z,978.27
2023-03-10T23:35:41.493Z,978.34
2023-03-10T23:36:41.470Z,978.33
2023-03-10T23:37:41.445Z,978.29
2023-03-10T23:38:41.445Z,978.35
2023-03-10T23:39:41.424Z,978.44
2023-03-10T23:40:41.442Z,978.40
2023-03-10T23:41:41.432Z,978.46
2023-03-10T23:42:41.424Z,978.42
2023-03-10T23:43:41.397Z,978.41
2023-03-10T23:44:41.419Z,978.51
2023-03-10T23:45:41.435Z,978.52
2023-03-10T23:46:41.456Z,978.46
2023-03-10T23:47:41.399Z,978.54
2023-03-10T23:48:41.368Z,978.49
2023-03-10T23:49:41.378Z,978.60
2023-03-10T23:50:41.351Z,978.58
2023-03-10T23:51:41.380Z,978.64
2023-03-10T23:52:41.362Z,978.76
2023-03-10T23:53:43.141Z,978.59
2023-03-10T23:54:42.328Z,978.71
2023-03-10T23:55:41.328Z,978.71
2023-03-10T23:56:41.323Z,978.73
2023-03-10T23:57:41.321Z,978.72
2023-03-10T23:58:41.328Z,978.76
2023-03-10T23:59:41.303Z,978.80
